Terminal Aerodrome Forecast
Issued by NWS Cleveland, OH

Home | Current Version | Previous Version | Graphics & Text | Print | Product List | Glossary Off
Versions: 1 2 3 4 5 6 7 8 9 10 11 12 13 14 15 16 17 18 19 20 21 22 23 24

000
FTUS41 KCLE 151900 AAA
TAFTOL
TAF AMD
KTOL 151954Z 1520/1618 24006KT P6SM SCT045 OVC070
      TEMPO 1520/1523 6SM -RA BR OVC045
     FM152300 31004KT 5SM -RA BR OVC020
     FM160300 29004KT 5SM BR OVC007
     FM160800 33004KT P6SM OVC015
     FM161300 36004KT P6SM SCT030=

USA.gov is the U.S. government's official web portal to all federal, state and local government web resources and services.